sensor_id;sensor_type;location;lat;lon;timestamp;temperature;humidity
6206;DHT22;3136;48.788;9.772;2023-03-23T00:01:56;8.80;1.00
6206;DHT22;3136;48.788;9.772;2023-03-23T00:04:22;8.80;1.00
6206;DHT22;3136;48.788;9.772;2023-03-23T00:06:48;8.90;1.00
6206;DHT22;3136;48.788;9.772;2023-03-23T00:09:14;8.90;1.00
6206;DHT22;3136;48.788;9.772;2023-03-23T00:11:41;9.00;1.00
6206;DHT22;3136;48.788;9.772;2023-03-23T00:14:07;9.00;1.00
6206;DHT22;3136;48.788;9.772;2023-03-23T00:16:40;9.00;1.00
6206;DHT22;3136;48.788;9.772;2023-03-23T00:19:11;9.00;1.00
6206;DHT22;3136;48.788;9.772;2023-03-23T00:21:41;9.00;1.00
6206;DHT22;3136;48.788;9.772;2023-03-23T00:24:11;9.00;1.00
6206;DHT22;3136;48.788;9.772;2023-03-23T00:26:38;9.20;1.00
6206;DHT22;3136;48.788;9.772;2023-03-23T00:31:39;9.00;1.00
6206;DHT22;3136;48.788;9.772;2023-03-23T00:34:05;9.00;1.00
6206;DHT22;3136;48.788;9.772;2023-03-23T00:36:33;9.00;1.00
6206;DHT22;3136;48.788;9.772;2023-03-23T00:39:01;9.00;1.00
6206;DHT22;3136;48.788;9.772;2023-03-23T00:41:28;9.00;1.00
6206;DHT22;3136;48.788;9.772;2023-03-23T00:43:55;9.00;1.00
6206;DHT22;3136;48.788;9.772;2023-03-23T00:46:22;9.00;1.00
6206;DHT22;3136;48.788;9.772;2023-03-23T00:48:48;9.00;1.00
6206;DHT22;3136;48.788;9.772;2023-03-23T00:51:17;9.00;1.00
6206;DHT22;3136;48.788;9.772;2023-03-23T00:53:43;9.00;1.00
6206;DHT22;3136;48.788;9.772;2023-03-23T00:56:09;9.00;1.00
6206;DHT22;3136;48.788;9.772;2023-03-23T00:58:34;9.10;1.00
6206;DHT22;3136;48.788;9.772;2023-03-23T01:01:00;9.10;1.00
6206;DHT22;3136;48.788;9.772;2023-03-23T01:03:26;9.10;1.00
6206;DHT22;3136;48.788;9.772;2023-03-23T01:05:53;9.20;4.30
6206;DHT22;3136;48.788;9.772;2023-03-23T01:08:20;9.10;38.50
6206;DHT22;3136;48.788;9.772;2023-03-23T01:10:47;9.10;87.50
6206;DHT22;3136;48.788;9.772;2023-03-23T01:13:13;9.10;99.90
6206;DHT22;3136;48.788;9.772;2023-03-23T01:15:39;9.10;99.90
6206;DHT22;3136;48.788;9.772;2023-03-23T01:18:05;9.10;99.90
6206;DHT22;3136;48.788;9.772;2023-03-23T01:20:31;9.20;99.90
6206;DHT22;3136;48.788;9.772;2023-03-23T01:22:58;9.10;99.90
6206;DHT22;3136;48.788;9.772;2023-03-23T01:25:28;9.10;99.90
6206;DHT22;3136;48.788;9.772;2023-03-23T01:27:54;9.10;99.90
6206;DHT22;3136;48.788;9.772;2023-03-23T01:30:19;9.00;99.90
6206;DHT22;3136;48.788;9.772;2023-03-23T01:32:45;9.10;99.90
6206;DHT22;3136;48.788;9.772;2023-03-23T01:35:12;9.10;99.90
6206;DHT22;3136;48.788;9.772;2023-03-23T01:37:38;9.10;99.90
6206;DHT22;3136;48.788;9.772;2023-03-23T01:40:04;9.10;99.90
6206;DHT22;3136;48.788;9.772;2023-03-23T01:42:34;9.10;99.90
6206;DHT22;3136;48.788;9.772;2023-03-23T01:45:28;9.10;99.90
6206;DHT22;3136;48.788;9.772;2023-03-23T01:48:01;9.10;99.90
6206;DHT22;3136;48.788;9.772;2023-03-23T01:50:30;9.10;99.90
6206;DHT22;3136;48.788;9.772;2023-03-23T01:53:01;9.10;99.90
6206;DHT22;3136;48.788;9.772;2023-03-23T01:55:30;9.10;99.90
6206;DHT22;3136;48.788;9.772;2023-03-23T01:57:56;9.10;99.90
6206;DHT22;3136;48.788;9.772;2023-03-23T02:00:23;9.10;99.90
6206;DHT22;3136;48.788;9.772;2023-03-23T02:02:51;9.10;1.00
6206;DHT22;3136;48.788;9.772;2023-03-23T02:05:26;9.10;1.00
6206;DHT22;3136;48.788;9.772;2023-03-23T02:07:54;9.10;1.00
6206;DHT22;3136;48.788;9.772;2023-03-23T02:10:19;9.10;1.00
6206;DHT22;3136;48.788;9.772;2023-03-23T02:12:45;9.30;99.90
6206;DHT22;3136;48.788;9.772;2023-03-23T02:15:11;9.10;99.90
6206;DHT22;3136;48.788;9.772;2023-03-23T02:17:51;9.10;99.90
6206;DHT22;3136;48.788;9.772;2023-03-23T02:20:32;9.10;99.90
6206;DHT22;3136;48.788;9.772;2023-03-23T02:28:28;9.10;99.90
6206;DHT22;3136;48.788;9.772;2023-03-23T02:31:05;9.10;99.90
6206;DHT22;3136;48.788;9.772;2023-03-23T02:33:44;9.10;99.90
6206;DHT22;3136;48.788;9.772;2023-03-23T02:36:23;9.20;99.90
6206;DHT22;3136;48.788;9.772;2023-03-23T02:41:41;9.10;1.00
6206;DHT22;3136;48.788;9.772;2023-03-23T02:44:09;9.10;1.00
6206;DHT22;3136;48.788;9.772;2023-03-23T02:46:36;9.10;1.00
6206;DHT22;3136;48.788;9.772;2023-03-23T02:49:03;9.10;1.00
6206;DHT22;3136;48.788;9.772;2023-03-23T02:51:32;9.10;1.00
6206;DHT22;3136;48.788;9.772;2023-03-23T02:53:59;9.10;1.00
6206;DHT22;3136;48.788;9.772;2023-03-23T02:56:26;9.10;1.00
6206;DHT22;3136;48.788;9.772;2023-03-23T02:58:53;9.10;1.00
6206;DHT22;3136;48.788;9.772;2023-03-23T03:03:55;9.00;99.90
6206;DHT22;3136;48.788;9.772;2023-03-23T03:06:33;9.00;99.90
6206;DHT22;3136;48.788;9.772;2023-03-23T03:09:05;9.00;99.90
6206;DHT22;3136;48.788;9.772;2023-03-23T03:11:35;9.00;1.00
6206;DHT22;3136;48.788;9.772;2023-03-23T03:14:09;9.00;99.90
6206;DHT22;3136;48.788;9.772;2023-03-23T03:16:40;9.00;99.90
6206;DHT22;3136;48.788;9.772;2023-03-23T03:19:13;9.00;99.90
6206;DHT22;3136;48.788;9.772;2023-03-23T03:21:45;9.00;99.90
6206;DHT22;3136;48.788;9.772;2023-03-23T03:24:15;9.00;99.90
6206;DHT22;3136;48.788;9.772;2023-03-23T03:26:46;9.00;99.90
6206;DHT22;3136;48.788;9.772;2023-03-23T03:29:16;9.00;99.90
6206;DHT22;3136;48.788;9.772;2023-03-23T03:31:45;9.00;99.90
6206;DHT22;3136;48.788;9.772;2023-03-23T03:34:12;9.00;99.90
6206;DHT22;3136;48.788;9.772;2023-03-23T03:36:44;8.90;99.90
6206;DHT22;3136;48.788;9.772;2023-03-23T03:39:12;9.00;99.90
6206;DHT22;3136;48.788;9.772;2023-03-23T03:41:40;9.00;99.90
6206;DHT22;3136;48.788;9.772;2023-03-23T03:44:06;8.90;99.90
6206;DHT22;3136;48.788;9.772;2023-03-23T03:46:33;8.90;99.90
6206;DHT22;3136;48.788;9.772;2023-03-23T03:49:00;8.90;99.90
6206;DHT22;3136;48.788;9.772;2023-03-23T03:51:27;8.90;99.90
6206;DHT22;3136;48.788;9.772;2023-03-23T03:53:53;9.00;99.90
6206;DHT22;3136;48.788;9.772;2023-03-23T03:56:19;9.00;99.90
6206;DHT22;3136;48.788;9.772;2023-03-23T03:58:48;9.00;99.90
6206;DHT22;3136;48.788;9.772;2023-03-23T04:01:16;9.00;99.90
6206;DHT22;3136;48.788;9.772;2023-03-23T04:03:42;8.90;99.90
6206;DHT22;3136;48.788;9.772;2023-03-23T04:06:08;9.00;99.90
6206;DHT22;3136;48.788;9.772;2023-03-23T04:08:36;9.00;99.90
6206;DHT22;3136;48.788;9.772;2023-03-23T04:11:03;8.90;99.90
6206;DHT22;3136;48.788;9.772;2023-03-23T04:13:29;8.90;99.90
6206;DHT22;3136;48.788;9.772;2023-03-23T04:15:55;9.00;99.90
6206;DHT22;3136;48.788;9.772;2023-03-23T04:18:21;9.00;99.90
6206;DHT22;3136;48.788;9.772;2023-03-23T04:20:48;9.00;99.90
6206;DHT22;3136;48.788;9.772;2023-03-23T04:23:15;9.00;99.90
6206;DHT22;3136;48.788;9.772;2023-03-23T04:25:45;9.00;99.90
6206;DHT22;3136;48.788;9.772;2023-03-23T04:28:12;9.00;99.90
6206;DHT22;3136;48.788;9.772;2023-03-23T04:30:38;9.00;97.50
6206;DHT22;3136;48.788;9.772;2023-03-23T04:33:03;9.00;59.60
6206;DHT22;3136;48.788;9.772;2023-03-23T04:35:29;9.00;28.10
6206;DHT22;3136;48.788;9.772;2023-03-23T04:37:56;9.00;31.00
6206;DHT22;3136;48.788;9.772;2023-03-23T04:40:22;9.00;80.60
6206;DHT22;3136;48.788;9.772;2023-03-23T04:42:48;9.00;99.90
6206;DHT22;3136;48.788;9.772;2023-03-23T04:45:20;9.00;99.90
6206;DHT22;3136;48.788;9.772;2023-03-23T04:47:50;9.00;99.90
6206;DHT22;3136;48.788;9.772;2023-03-23T04:50:27;9.00;99.60
6206;DHT22;3136;48.788;9.772;2023-03-23T04:52:56;9.00;67.30
6206;DHT22;3136;48.788;9.772;2023-03-23T04:55:23;9.00;72.80
6206;DHT22;3136;48.788;9.772;2023-03-23T04:57:49;9.00;89.50
6206;DHT22;3136;48.788;9.772;2023-03-23T05:00:15;9.00;75.30
6206;DHT22;3136;48.788;9.772;2023-03-23T05:02:46;9.00;88.00
6206;DHT22;3136;48.788;9.772;2023-03-23T05:05:19;9.10;87.40
6206;DHT22;3136;48.788;9.772;2023-03-23T05:07:45;9.00;99.90
6206;DHT22;3136;48.788;9.772;2023-03-23T05:10:12;9.10;99.90
6206;DHT22;3136;48.788;9.772;2023-03-23T05:12:39;9.10;99.90
6206;DHT22;3136;48.788;9.772;2023-03-23T05:15:06;9.10;99.90
6206;DHT22;3136;48.788;9.772;2023-03-23T05:17:32;9.10;99.90
6206;DHT22;3136;48.788;9.772;2023-03-23T05:19:59;9.20;99.90
6206;DHT22;3136;48.788;9.772;2023-03-23T05:22:27;9.10;99.90
6206;DHT22;3136;48.788;9.772;2023-03-23T05:24:53;9.10;99.90
6206;DHT22;3136;48.788;9.772;2023-03-23T05:27:19;9.10;99.90
6206;DHT22;3136;48.788;9.772;2023-03-23T05:29:45;9.10;99.90
6206;DHT22;3136;48.788;9.772;2023-03-23T05:32:14;9.20;99.90
6206;DHT22;3136;48.788;9.772;2023-03-23T05:34:40;9.00;99.90
6206;DHT22;3136;48.788;9.772;2023-03-23T05:37:08;9.10;99.90
6206;DHT22;3136;48.788;9.772;2023-03-23T05:39:35;9.10;99.90
6206;DHT22;3136;48.788;9.772;2023-03-23T05:42:01;9.10;99.90
6206;DHT22;3136;48.788;9.772;2023-03-23T05:44:27;9.10;99.90
6206;DHT22;3136;48.788;9.772;2023-03-23T05:46:53;9.10;99.90
6206;DHT22;3136;48.788;9.772;2023-03-23T05:49:18;9.20;99.90
6206;DHT22;3136;48.788;9.772;2023-03-23T05:51:45;9.20;99.90
6206;DHT22;3136;48.788;9.772;2023-03-23T05:54:15;9.20;99.90
6206;DHT22;3136;48.788;9.772;2023-03-23T05:56:41;11.30;99.90
6206;DHT22;3136;48.788;9.772;2023-03-23T05:59:07;9.30;99.90
6206;DHT22;3136;48.788;9.772;2023-03-23T06:01:33;9.30;99.90
6206;DHT22;3136;48.788;9.772;2023-03-23T06:03:59;9.30;99.90
6206;DHT22;3136;48.788;9.772;2023-03-23T06:06:26;9.30;99.90
6206;DHT22;3136;48.788;9.772;2023-03-23T06:08:52;9.30;99.90
6206;DHT22;3136;48.788;9.772;2023-03-23T06:11:17;9.40;99.90
6206;DHT22;3136;48.788;9.772;2023-03-23T06:13:44;9.40;99.90
6206;DHT22;3136;48.788;9.772;2023-03-23T06:16:10;9.40;99.90
6206;DHT22;3136;48.788;9.772;2023-03-23T06:18:35;9.50;99.90
6206;DHT22;3136;48.788;9.772;2023-03-23T06:21:03;9.50;99.90
6206;DHT22;3136;48.788;9.772;2023-03-23T06:23:29;9.60;99.90
6206;DHT22;3136;48.788;9.772;2023-03-23T06:25:59;9.60;99.90
6206;DHT22;3136;48.788;9.772;2023-03-23T06:28:26;9.70;99.90
6206;DHT22;3136;48.788;9.772;2023-03-23T06:30:52;9.80;99.90
6206;DHT22;3136;48.788;9.772;2023-03-23T06:33:18;9.80;99.90
6206;DHT22;3136;48.788;9.772;2023-03-23T06:35:44;9.90;1.00
6206;DHT22;3136;48.788;9.772;2023-03-23T06:38:10;10.10;1.00
6206;DHT22;3136;48.788;9.772;2023-03-23T06:40:35;10.10;1.00
6206;DHT22;3136;48.788;9.772;2023-03-23T06:43:02;10.20;1.00
6206;DHT22;3136;48.788;9.772;2023-03-23T06:45:29;10.30;99.90
6206;DHT22;3136;48.788;9.772;2023-03-23T06:47:55;10.40;99.90
6206;DHT22;3136;48.788;9.772;2023-03-23T06:50:22;10.50;55.90
6206;DHT22;3136;48.788;9.772;2023-03-23T06:52:48;10.70;1.00
6206;DHT22;3136;48.788;9.772;2023-03-23T06:55:15;10.60;1.00
6206;DHT22;3136;48.788;9.772;2023-03-23T06:57:42;10.60;1.00
6206;DHT22;3136;48.788;9.772;2023-03-23T07:00:09;10.70;1.00
6206;DHT22;3136;48.788;9.772;2023-03-23T07:02:38;10.80;1.00
6206;DHT22;3136;48.788;9.772;2023-03-23T07:05:04;10.80;1.00
6206;DHT22;3136;48.788;9.772;2023-03-23T07:07:29;10.90;1.00
6206;DHT22;3136;48.788;9.772;2023-03-23T07:09:55;10.80;1.00
6206;DHT22;3136;48.788;9.772;2023-03-23T07:12:22;10.80;1.00
6206;DHT22;3136;48.788;9.772;2023-03-23T07:14:48;11.00;99.90
6206;DHT22;3136;48.788;9.772;2023-03-23T07:17:13;11.00;1.00
6206;DHT22;3136;48.788;9.772;2023-03-23T07:19:39;11.10;1.00
6206;DHT22;3136;48.788;9.772;2023-03-23T07:22:06;11.20;1.00
6206;DHT22;3136;48.788;9.772;2023-03-23T07:24:32;11.30;1.00
6206;DHT22;3136;48.788;9.772;2023-03-23T07:26:58;11.40;1.00
6206;DHT22;3136;48.788;9.772;2023-03-23T07:29:24;11.60;1.00
6206;DHT22;3136;48.788;9.772;2023-03-23T07:31:50;11.80;1.00
6206;DHT22;3136;48.788;9.772;2023-03-23T07:34:17;11.90;1.00
6206;DHT22;3136;48.788;9.772;2023-03-23T07:36:42;12.00;1.00
6206;DHT22;3136;48.788;9.772;2023-03-23T07:39:09;12.10;1.00
6206;DHT22;3136;48.788;9.772;2023-03-23T07:41:34;12.20;1.00
6206;DHT22;3136;48.788;9.772;2023-03-23T07:44:00;12.40;99.90
6206;DHT22;3136;48.788;9.772;2023-03-23T07:46:26;12.50;99.90
6206;DHT22;3136;48.788;9.772;2023-03-23T07:48:52;12.60;99.90
6206;DHT22;3136;48.788;9.772;2023-03-23T07:51:17;12.70;99.90
6206;DHT22;3136;48.788;9.772;2023-03-23T07:53:43;12.80;99.90
6206;DHT22;3136;48.788;9.772;2023-03-23T07:56:12;13.00;99.90
6206;DHT22;3136;48.788;9.772;2023-03-23T07:58:42;12.80;99.90
6206;DHT22;3136;48.788;9.772;2023-03-23T08:01:09;12.80;99.90
6206;DHT22;3136;48.788;9.772;2023-03-23T08:03:35;12.80;99.90
6206;DHT22;3136;48.788;9.772;2023-03-23T08:06:01;12.70;99.90
6206;DHT22;3136;48.788;9.772;2023-03-23T08:08:26;12.70;99.90
6206;DHT22;3136;48.788;9.772;2023-03-23T08:10:52;12.70;99.90
6206;DHT22;3136;48.788;9.772;2023-03-23T08:13:18;12.80;99.90
6206;DHT22;3136;48.788;9.772;2023-03-23T08:15:44;12.70;99.90
6206;DHT22;3136;48.788;9.772;2023-03-23T08:18:10;12.80;99.90
6206;DHT22;3136;48.788;9.772;2023-03-23T08:20:36;13.00;99.90
6206;DHT22;3136;48.788;9.772;2023-03-23T08:23:02;13.10;99.90
6206;DHT22;3136;48.788;9.772;2023-03-23T08:25:29;13.30;99.90
6206;DHT22;3136;48.788;9.772;2023-03-23T08:27:57;13.50;99.90
6206;DHT22;3136;48.788;9.772;2023-03-23T08:30:23;13.60;99.90
6206;DHT22;3136;48.788;9.772;2023-03-23T08:32:50;13.80;99.90
6206;DHT22;3136;48.788;9.772;2023-03-23T08:35:18;13.90;99.90
6206;DHT22;3136;48.788;9.772;2023-03-23T08:37:44;14.10;99.90
6206;DHT22;3136;48.788;9.772;2023-03-23T08:40:12;14.30;99.90
6206;DHT22;3136;48.788;9.772;2023-03-23T08:42:41;14.40;99.90
6206;DHT22;3136;48.788;9.772;2023-03-23T08:45:09;14.50;99.90
6206;DHT22;3136;48.788;9.772;2023-03-23T08:47:35;14.60;93.10
6206;DHT22;3136;48.788;9.772;2023-03-23T08:50:02;14.80;99.90
6206;DHT22;3136;48.788;9.772;2023-03-23T08:52:29;15.20;74.60
6206;DHT22;3136;48.788;9.772;2023-03-23T08:54:55;15.50;73.20
6206;DHT22;3136;48.788;9.772;2023-03-23T08:57:22;15.80;66.90
6206;DHT22;3136;48.788;9.772;2023-03-23T08:59:48;16.00;58.30
6206;DHT22;3136;48.788;9.772;2023-03-23T09:02:14;16.30;54.20
6206;DHT22;3136;48.788;9.772;2023-03-23T09:04:40;16.40;52.60
6206;DHT22;3136;48.788;9.772;2023-03-23T09:07:08;16.60;73.30
6206;DHT22;3136;48.788;9.772;2023-03-23T09:09:34;16.50;50.70
6206;DHT22;3136;48.788;9.772;2023-03-23T09:12:00;16.90;47.10
6206;DHT22;3136;48.788;9.772;2023-03-23T09:14:26;16.50;46.40
6206;DHT22;3136;48.788;9.772;2023-03-23T09:16:52;16.50;45.20
6206;DHT22;3136;48.788;9.772;2023-03-23T09:19:17;16.20;49.90
6206;DHT22;3136;48.788;9.772;2023-03-23T09:21:43;16.20;46.50
6206;DHT22;3136;48.788;9.772;2023-03-23T09:24:11;16.10;45.10
6206;DHT22;3136;48.788;9.772;2023-03-23T09:26:36;16.00;45.40
6206;DHT22;3136;48.788;9.772;2023-03-23T09:29:02;15.90;45.50
6206;DHT22;3136;48.788;9.772;2023-03-23T09:31:28;15.60;43.30
6206;DHT22;3136;48.788;9.772;2023-03-23T09:33:54;15.60;44.60
6206;DHT22;3136;48.788;9.772;2023-03-23T09:36:22;15.50;44.80
6206;DHT22;3136;48.788;9.772;2023-03-23T09:38:49;15.50;48.00
6206;DHT22;3136;48.788;9.772;2023-03-23T09:41:40;15.50;46.90
6206;DHT22;3136;48.788;9.772;2023-03-23T09:49:07;15.80;47.90
6206;DHT22;3136;48.788;9.772;2023-03-23T09:54:22;15.80;46.00
6206;DHT22;3136;48.788;9.772;2023-03-23T09:56:49;15.80;46.20
6206;DHT22;3136;48.788;9.772;2023-03-23T09:59:21;15.90;46.70
6206;DHT22;3136;48.788;9.772;2023-03-23T10:01:55;16.00;45.10
6206;DHT22;3136;48.788;9.772;2023-03-23T10:07:18;15.80;45.40
6206;DHT22;3136;48.788;9.772;2023-03-23T10:09:48;15.80;45.70
6206;DHT22;3136;48.788;9.772;2023-03-23T10:12:38;15.80;46.90
6206;DHT22;3136;48.788;9.772;2023-03-23T10:23:14;15.70;45.10
6206;DHT22;3136;48.788;9.772;2023-03-23T10:28:37;15.80;47.30
6206;DHT22;3136;48.788;9.772;2023-03-23T10:31:09;15.80;46.60
6206;DHT22;3136;48.788;9.772;2023-03-23T10:33:40;15.70;46.90
6206;DHT22;3136;48.788;9.772;2023-03-23T10:39:20;15.80;49.70
6206;DHT22;3136;48.788;9.772;2023-03-23T10:41:47;15.70;51.10
6206;DHT22;3136;48.788;9.772;2023-03-23T10:44:22;15.90;48.90
6206;DHT22;3136;48.788;9.772;2023-03-23T10:46:52;16.00;46.90
6206;DHT22;3136;48.788;9.772;2023-03-23T10:49:23;16.10;45.60
6206;DHT22;3136;48.788;9.772;2023-03-23T10:51:59;16.00;44.50
6206;DHT22;3136;48.788;9.772;2023-03-23T10:54:31;16.10;45.10
6206;DHT22;3136;48.788;9.772;2023-03-23T10:56:58;16.20;64.50
6206;DHT22;3136;48.788;9.772;2023-03-23T10:59:29;16.40;42.60
6206;DHT22;3136;48.788;9.772;2023-03-23T11:02:00;16.10;42.50
6206;DHT22;3136;48.788;9.772;2023-03-23T11:04:28;16.20;41.40
6206;DHT22;3136;48.788;9.772;2023-03-23T11:06:59;16.20;63.40
6206;DHT22;3136;48.788;9.772;2023-03-23T11:09:40;16.20;42.80
6206;DHT22;3136;48.788;9.772;2023-03-23T11:12:18;16.20;41.80
6206;DHT22;3136;48.788;9.772;2023-03-23T11:14:44;16.20;43.50
6206;DHT22;3136;48.788;9.772;2023-03-23T11:17:26;16.30;41.60
6206;DHT22;3136;48.788;9.772;2023-03-23T11:19:53;16.20;42.00
6206;DHT22;3136;48.788;9.772;2023-03-23T11:22:26;16.30;41.20
6206;DHT22;3136;48.788;9.772;2023-03-23T11:24:54;16.40;40.40
6206;DHT22;3136;48.788;9.772;2023-03-23T11:27:21;16.60;40.50
6206;DHT22;3136;48.788;9.772;2023-03-23T11:32:34;16.60;39.40
6206;DHT22;3136;48.788;9.772;2023-03-23T11:35:04;16.80;40.10
6206;DHT22;3136;48.788;9.772;2023-03-23T11:37:42;16.80;38.30
6206;DHT22;3136;48.788;9.772;2023-03-23T11:45:19;17.60;37.70
6206;DHT22;3136;48.788;9.772;2023-03-23T11:51:04;17.80;36.00
6206;DHT22;3136;48.788;9.772;2023-03-23T11:53:42;18.00;36.90
6206;DHT22;3136;48.788;9.772;2023-03-23T11:58:40;18.20;37.40
6206;DHT22;3136;48.788;9.772;2023-03-23T12:01:36;18.20;34.80
6206;DHT22;3136;48.788;9.772;2023-03-23T12:07:20;18.40;35.10
6206;DHT22;3136;48.788;9.772;2023-03-23T12:10:06;18.40;36.30
6206;DHT22;3136;48.788;9.772;2023-03-23T12:15:20;18.40;36.70
6206;DHT22;3136;48.788;9.772;2023-03-23T12:18:09;18.30;35.90
6206;DHT22;3136;48.788;9.772;2023-03-23T12:26:14;18.50;32.40
6206;DHT22;3136;48.788;9.772;2023-03-23T12:34:45;19.20;31.60
6206;DHT22;3136;48.788;9.772;2023-03-23T12:45:49;19.20;32.60
6206;DHT22;3136;48.788;9.772;2023-03-23T12:48:29;19.40;31.60
6206;DHT22;3136;48.788;9.772;2023-03-23T12:53:30;19.70;27.90
6206;DHT22;3136;48.788;9.772;2023-03-23T12:56:17;19.00;26.80
6206;DHT22;3136;48.788;9.772;2023-03-23T12:58:46;18.90;27.60
6206;DHT22;3136;48.788;9.772;2023-03-23T13:01:18;18.60;27.70
6206;DHT22;3136;48.788;9.772;2023-03-23T13:04:05;18.40;28.80
6206;DHT22;3136;48.788;9.772;2023-03-23T13:06:37;18.40;30.90
6206;DHT22;3136;48.788;9.772;2023-03-23T13:11:42;18.10;28.70
6206;DHT22;3136;48.788;9.772;2023-03-23T13:22:51;18.30;30.70
6206;DHT22;3136;48.788;9.772;2023-03-23T13:25:30;18.40;30.10
6206;DHT22;3136;48.788;9.772;2023-03-23T13:27:59;18.50;30.00
6206;DHT22;3136;48.788;9.772;2023-03-23T13:30:27;18.60;29.30
6206;DHT22;3136;48.788;9.772;2023-03-23T13:33:02;18.70;30.20
6206;DHT22;3136;48.788;9.772;2023-03-23T13:35:35;18.70;27.40
6206;DHT22;3136;48.788;9.772;2023-03-23T13:38:12;18.70;27.30
6206;DHT22;3136;48.788;9.772;2023-03-23T13:40:42;18.60;27.70
6206;DHT22;3136;48.788;9.772;2023-03-23T13:43:09;18.60;27.70
6206;DHT22;3136;48.788;9.772;2023-03-23T13:50:59;18.60;27.80
6206;DHT22;3136;48.788;9.772;2023-03-23T13:58:50;18.40;27.20
6206;DHT22;3136;48.788;9.772;2023-03-23T14:01:36;18.20;27.60
6206;DHT22;3136;48.788;9.772;2023-03-23T14:04:07;18.10;27.30
6206;DHT22;3136;48.788;9.772;2023-03-23T14:06:36;18.00;26.70
6206;DHT22;3136;48.788;9.772;2023-03-23T14:09:27;18.00;27.40
6206;DHT22;3136;48.788;9.772;2023-03-23T14:12:03;17.90;26.80
6206;DHT22;3136;48.788;9.772;2023-03-23T14:14:40;17.90;45.50
6206;DHT22;3136;48.788;9.772;2023-03-23T14:17:12;17.80;25.90
6206;DHT22;3136;48.788;9.772;2023-03-23T14:19:41;17.80;25.10
6206;DHT22;3136;48.788;9.772;2023-03-23T14:22:19;17.70;25.60
6206;DHT22;3136;48.788;9.772;2023-03-23T14:24:45;17.60;25.60
6206;DHT22;3136;48.788;9.772;2023-03-23T14:27:18;17.50;30.50
6206;DHT22;3136;48.788;9.772;2023-03-23T14:29:45;17.50;25.70
6206;DHT22;3136;48.788;9.772;2023-03-23T14:32:16;17.50;25.30
6206;DHT22;3136;48.788;9.772;2023-03-23T14:34:43;17.50;26.30
6206;DHT22;3136;48.788;9.772;2023-03-23T14:37:13;17.40;25.60
6206;DHT22;3136;48.788;9.772;2023-03-23T14:39:44;17.30;25.50
6206;DHT22;3136;48.788;9.772;2023-03-23T14:42:13;17.30;26.40
6206;DHT22;3136;48.788;9.772;2023-03-23T14:44:44;17.40;45.20
6206;DHT22;3136;48.788;9.772;2023-03-23T14:47:30;17.30;26.00
6206;DHT22;3136;48.788;9.772;2023-03-23T14:49:59;17.20;27.80
6206;DHT22;3136;48.788;9.772;2023-03-23T14:52:28;17.00;27.90
6206;DHT22;3136;48.788;9.772;2023-03-23T14:55:06;16.90;27.90
6206;DHT22;3136;48.788;9.772;2023-03-23T14:57:32;17.00;27.60
6206;DHT22;3136;48.788;9.772;2023-03-23T14:59:58;16.80;27.00
6206;DHT22;3136;48.788;9.772;2023-03-23T15:04:54;16.90;26.20
6206;DHT22;3136;48.788;9.772;2023-03-23T15:07:22;16.80;27.70
6206;DHT22;3136;48.788;9.772;2023-03-23T15:09:51;16.80;28.10
6206;DHT22;3136;48.788;9.772;2023-03-23T15:12:25;16.80;27.60
6206;DHT22;3136;48.788;9.772;2023-03-23T15:14:57;16.90;27.60
6206;DHT22;3136;48.788;9.772;2023-03-23T15:17:28;16.80;28.20
6206;DHT22;3136;48.788;9.772;2023-03-23T15:19:55;16.80;27.70
6206;DHT22;3136;48.788;9.772;2023-03-23T15:22:29;17.00;26.30
6206;DHT22;3136;48.788;9.772;2023-03-23T15:25:17;17.10;26.80
6206;DHT22;3136;48.788;9.772;2023-03-23T15:27:52;17.10;27.10
6206;DHT22;3136;48.788;9.772;2023-03-23T15:32:54;17.20;26.80
6206;DHT22;3136;48.788;9.772;2023-03-23T15:35:23;17.10;27.60
6206;DHT22;3136;48.788;9.772;2023-03-23T15:38:02;17.10;27.30
6206;DHT22;3136;48.788;9.772;2023-03-23T15:40:33;17.00;26.70
6206;DHT22;3136;48.788;9.772;2023-03-23T15:48:50;16.90;26.50
6206;DHT22;3136;48.788;9.772;2023-03-23T15:51:18;16.90;25.30
6206;DHT22;3136;48.788;9.772;2023-03-23T15:53:44;16.90;25.20
6206;DHT22;3136;48.788;9.772;2023-03-23T15:56:12;16.80;25.00
6206;DHT22;3136;48.788;9.772;2023-03-23T15:58:39;16.80;26.30
6206;DHT22;3136;48.788;9.772;2023-03-23T16:01:11;16.80;26.40
6206;DHT22;3136;48.788;9.772;2023-03-23T16:03:42;16.70;25.70
6206;DHT22;3136;48.788;9.772;2023-03-23T16:06:12;16.70;25.80
6206;DHT22;3136;48.788;9.772;2023-03-23T16:08:39;16.70;26.50
6206;DHT22;3136;48.788;9.772;2023-03-23T16:11:16;16.60;25.80
6206;DHT22;3136;48.788;9.772;2023-03-23T16:13:42;16.60;25.50
6206;DHT22;3136;48.788;9.772;2023-03-23T16:16:23;16.70;25.30
6206;DHT22;3136;48.788;9.772;2023-03-23T16:18:49;16.80;25.50
6206;DHT22;3136;48.788;9.772;2023-03-23T16:21:15;16.90;26.70
6206;DHT22;3136;48.788;9.772;2023-03-23T16:23:40;17.30;25.80
6206;DHT22;3136;48.788;9.772;2023-03-23T16:26:09;16.60;24.60
6206;DHT22;3136;48.788;9.772;2023-03-23T16:28:34;16.50;25.10
6206;DHT22;3136;48.788;9.772;2023-03-23T16:31:00;16.50;25.40
6206;DHT22;3136;48.788;9.772;2023-03-23T16:33:25;16.40;24.70
6206;DHT22;3136;48.788;9.772;2023-03-23T16:35:51;16.40;24.90
6206;DHT22;3136;48.788;9.772;2023-03-23T16:38:17;16.30;25.70
6206;DHT22;3136;48.788;9.772;2023-03-23T16:40:44;16.20;24.10
6206;DHT22;3136;48.788;9.772;2023-03-23T16:43:10;16.20;25.10
6206;DHT22;3136;48.788;9.772;2023-03-23T16:45:38;16.20;25.80
6206;DHT22;3136;48.788;9.772;2023-03-23T16:48:04;16.10;26.60
6206;DHT22;3136;48.788;9.772;2023-03-23T16:50:31;16.00;26.40
6206;DHT22;3136;48.788;9.772;2023-03-23T16:52:56;15.90;25.70
6206;DHT22;3136;48.788;9.772;2023-03-23T16:55:24;15.90;26.10
6206;DHT22;3136;48.788;9.772;2023-03-23T16:57:51;15.90;26.30
6206;DHT22;3136;48.788;9.772;2023-03-23T17:00:18;15.80;26.40
6206;DHT22;3136;48.788;9.772;2023-03-23T17:02:49;15.80;26.30
6206;DHT22;3136;48.788;9.772;2023-03-23T17:05:17;15.80;25.80
6206;DHT22;3136;48.788;9.772;2023-03-23T17:07:44;15.80;26.40
6206;DHT22;3136;48.788;9.772;2023-03-23T17:10:10;15.80;25.30
6206;DHT22;3136;48.788;9.772;2023-03-23T17:12:37;15.80;26.10
6206;DHT22;3136;48.788;9.772;2023-03-23T17:15:03;15.70;26.40
6206;DHT22;3136;48.788;9.772;2023-03-23T17:17:29;15.60;27.20
6206;DHT22;3136;48.788;9.772;2023-03-23T17:19:55;15.50;28.60
6206;DHT22;3136;48.788;9.772;2023-03-23T17:22:20;15.70;28.30
6206;DHT22;3136;48.788;9.772;2023-03-23T17:24:46;15.40;28.00
6206;DHT22;3136;48.788;9.772;2023-03-23T17:27:14;15.60;29.20
6206;DHT22;3136;48.788;9.772;2023-03-23T17:29:39;15.20;27.90
6206;DHT22;3136;48.788;9.772;2023-03-23T17:32:05;15.30;26.80
6206;DHT22;3136;48.788;9.772;2023-03-23T17:34:30;15.40;26.40
6206;DHT22;3136;48.788;9.772;2023-03-23T17:36:56;15.40;27.20
6206;DHT22;3136;48.788;9.772;2023-03-23T17:39:21;15.30;27.70
6206;DHT22;3136;48.788;9.772;2023-03-23T17:41:47;15.30;31.00
6206;DHT22;3136;48.788;9.772;2023-03-23T17:44:13;15.20;30.80
6206;DHT22;3136;48.788;9.772;2023-03-23T17:46:38;15.10;35.00
6206;DHT22;3136;48.788;9.772;2023-03-23T17:49:04;15.00;33.40
6206;DHT22;3136;48.788;9.772;2023-03-23T17:51:29;14.90;40.40
6206;DHT22;3136;48.788;9.772;2023-03-23T17:53:55;14.30;49.00
6206;DHT22;3136;48.788;9.772;2023-03-23T17:56:21;14.70;61.90
6206;DHT22;3136;48.788;9.772;2023-03-23T17:58:47;14.60;69.20
6206;DHT22;3136;48.788;9.772;2023-03-23T18:01:12;14.40;79.30
6206;DHT22;3136;48.788;9.772;2023-03-23T18:03:38;14.30;92.90
6206;DHT22;3136;48.788;9.772;2023-03-23T18:06:05;14.10;97.10
6206;DHT22;3136;48.788;9.772;2023-03-23T18:08:33;14.00;99.90
6206;DHT22;3136;48.788;9.772;2023-03-23T18:10:59;13.90;99.90
6206;DHT22;3136;48.788;9.772;2023-03-23T18:13:26;13.80;99.90